createdAt,value
2019-05-02T00:02:30.075Z,7.23
2019-05-02T00:05:34.775Z,7.10
2019-05-02T00:08:39.565Z,6.73
2019-05-02T00:11:43.871Z,6.30
2019-05-02T00:14:48.283Z,6.57
2019-05-02T00:17:56.758Z,6.57
2019-05-02T00:21:01.455Z,6.77
2019-05-02T00:24:06.695Z,7.23
2019-05-02T00:27:11.000Z,7.30
2019-05-02T00:30:15.928Z,6.97
2019-05-02T00:33:20.298Z,7.00
2019-05-02T00:36:24.596Z,7.47
2019-05-02T00:39:28.961Z,6.97
2019-05-02T00:42:33.304Z,7.20
2019-05-02T00:45:37.622Z,7.20
2019-05-02T00:48:54.162Z,7.90
2019-05-02T00:52:01.228Z,7.63
2019-05-02T00:55:02.623Z,7.93
2019-05-02T00:58:06.936Z,7.77
2019-05-02T01:01:33.219Z,7.60
2019-05-02T01:04:39.548Z,7.90
2019-05-02T01:07:43.881Z,7.40
2019-05-02T01:10:52.087Z,8.13
2019-05-02T01:13:55.868Z,8.30
2019-05-02T01:17:00.371Z,7.60
2019-05-02T01:20:05.365Z,8.20
2019-05-02T01:23:09.692Z,7.80
2019-05-02T01:26:13.983Z,7.43
2019-05-02T01:29:36.695Z,7.50
2019-05-02T01:33:01.330Z,7.43
2019-05-02T01:36:08.182Z,7.37
2019-05-02T01:39:13.266Z,8.20
2019-05-02T01:42:17.573Z,8.33
2019-05-02T01:45:21.881Z,7.77
2019-05-02T01:48:26.356Z,7.93
2019-05-02T01:51:30.695Z,8.00
2019-05-02T01:54:36.107Z,8.33
2019-05-02T01:57:44.754Z,7.30
2019-05-02T02:00:46.462Z,7.53
2019-05-02T02:03:50.793Z,8.30
2019-05-02T02:06:55.086Z,7.70
2019-05-02T02:10:01.138Z,7.90
2019-05-02T02:13:05.564Z,9.33
2019-05-02T02:16:09.970Z,8.20
2019-05-02T02:19:22.371Z,8.63
2019-05-02T02:22:41.111Z,8.77
2019-05-02T02:26:06.779Z,8.00
2019-05-02T02:29:12.517Z,8.33
2019-05-02T02:32:19.984Z,8.20
2019-05-02T02:35:22.827Z,8.10
2019-05-02T02:38:33.783Z,9.00
2019-05-02T02:41:33.187Z,8.87
2019-05-02T02:44:56.427Z,8.23
2019-05-02T02:48:02.588Z,8.60
2019-05-02T02:51:06.804Z,8.07
2019-05-02T02:54:11.150Z,8.80
2019-05-02T02:57:25.684Z,8.00
2019-05-02T03:00:21.492Z,8.47
2019-05-02T03:03:27.965Z,8.90
2019-05-02T03:06:31.980Z,9.07
2019-05-02T03:09:36.219Z,8.60
2019-05-02T03:13:08.484Z,9.00
2019-05-02T03:16:16.734Z,8.13
2019-05-02T03:19:23.102Z,8.60
2019-05-02T03:22:27.146Z,8.63
2019-05-02T03:25:50.120Z,8.40
2019-05-02T03:28:37.738Z,7.80
2019-05-02T03:31:42.133Z,8.80
2019-05-02T03:34:52.274Z,8.57
2019-05-02T03:37:53.290Z,8.43
2019-05-02T03:40:57.656Z,8.73
2019-05-02T03:44:11.183Z,8.83
2019-05-02T03:47:08.399Z,9.80
2019-05-02T03:50:13.112Z,9.23
2019-05-02T03:53:24.773Z,9.60
2019-05-02T03:56:23.674Z,10.33
2019-05-02T03:59:37.552Z,9.30
2019-05-02T04:02:34.186Z,9.20
2019-05-02T04:05:40.495Z,9.43
2019-05-02T04:08:45.445Z,9.17
2019-05-02T04:11:49.766Z,9.07
2019-05-02T04:14:56.044Z,9.77
2019-05-02T04:18:00.629Z,9.77
2019-05-02T04:21:04.931Z,9.70
2019-05-02T04:24:14.997Z,9.10
2019-05-02T04:27:16.001Z,9.53
2019-05-02T04:30:20.311Z,9.57
2019-05-02T04:33:29.193Z,9.77
2019-05-02T04:36:31.789Z,10.07
2019-05-02T04:39:39.147Z,10.53
2019-05-02T04:42:42.468Z,10.80
2019-05-02T04:45:55.816Z,11.00
2019-05-02T04:48:53.376Z,10.80
2019-05-02T04:52:06.155Z,12.70
2019-05-02T04:55:14.742Z,11.00
2019-05-02T04:58:10.122Z,10.93
2019-05-02T05:01:14.471Z,12.13
2019-05-02T05:04:18.782Z,12.40
2019-05-02T05:07:23.182Z,12.20
2019-05-02T05:10:27.818Z,12.13
2019-05-02T05:13:36.923Z,11.97
2019-05-02T05:16:45.362Z,13.73
2019-05-02T05:19:48.737Z,12.37
2019-05-02T05:22:53.267Z,14.50
2019-05-02T05:26:03.243Z,13.63
2019-05-02T05:29:05.053Z,14.20
2019-05-02T05:32:10.282Z,14.27
2019-05-02T05:35:14.807Z,14.10
2019-05-02T05:38:22.958Z,14.43
2019-05-02T05:41:27.835Z,14.50
2019-05-02T05:44:32.856Z,15.17
2019-05-02T05:47:37.810Z,15.00
2019-05-02T05:50:42.674Z,15.33
2019-05-02T05:53:47.968Z,15.00
2019-05-02T05:56:53.395Z,13.83
2019-05-02T05:59:58.434Z,16.67
2019-05-02T06:03:11.573Z,15.13
2019-05-02T06:06:10.267Z,16.07
2019-05-02T06:09:15.446Z,15.23
2019-05-02T06:12:20.187Z,15.00
2019-05-02T06:15:24.557Z,15.50
2019-05-02T06:18:29.274Z,17.67
2019-05-02T06:21:34.000Z,17.73
2019-05-02T06:24:38.420Z,16.77
2019-05-02T06:27:42.770Z,16.17
2019-05-02T06:30:47.403Z,17.83
2019-05-02T06:33:51.756Z,16.37
2019-05-02T06:36:56.088Z,17.30
2019-05-02T06:40:03.067Z,18.47
2019-05-02T06:43:09.861Z,18.50
2019-05-02T06:46:16.456Z,17.13
2019-05-02T06:49:24.148Z,16.93
2019-05-02T06:52:27.207Z,17.23
2019-05-02T06:55:36.234Z,18.23
2019-05-02T06:58:42.296Z,20.07
2019-05-02T07:01:46.888Z,20.57
2019-05-02T07:04:54.729Z,20.63
2019-05-02T07:07:58.662Z,19.47
2019-05-02T07:11:03.721Z,19.07
2019-05-02T07:14:13.516Z,19.13
2019-05-02T07:17:31.962Z,19.43
2019-05-02T07:20:40.710Z,19.13
2019-05-02T07:23:43.525Z,19.00
2019-05-02T07:26:52.027Z,17.63
2019-05-02T07:29:57.830Z,18.77
2019-05-02T07:33:01.204Z,17.37
2019-05-02T07:36:06.876Z,19.17
2019-05-02T07:39:11.608Z,20.47
2019-05-02T07:42:15.955Z,19.57
2019-05-02T07:45:20.566Z,19.07
2019-05-02T07:48:25.499Z,19.03
2019-05-02T07:51:30.746Z,18.20
2019-05-02T07:54:35.747Z,17.60
2019-05-02T07:57:40.705Z,18.07
2019-05-02T08:00:45.469Z,18.63
2019-05-02T08:03:50.185Z,18.20
2019-05-02T08:06:54.510Z,17.50
2019-05-02T08:09:59.392Z,15.97
2019-05-02T08:13:03.726Z,15.37
2019-05-02T08:16:08.134Z,17.40
2019-05-02T08:19:12.889Z,16.87
2019-05-02T08:22:17.452Z,16.63
2019-05-02T08:25:21.901Z,15.87
2019-05-02T08:28:34.886Z,16.23
2019-05-02T08:31:39.224Z,15.80
2019-05-02T08:34:46.209Z,15.50
2019-05-02T08:37:50.034Z,15.87
2019-05-02T08:40:54.716Z,14.90
2019-05-02T08:43:59.039Z,14.23
2019-05-02T08:47:03.354Z,16.33
2019-05-02T08:50:11.364Z,15.67
2019-05-02T08:53:19.834Z,15.70
2019-05-02T08:56:22.932Z,14.87
2019-05-02T08:59:27.244Z,14.93
2019-05-02T09:02:41.273Z,15.10
2019-05-02T09:05:45.281Z,14.90
2019-05-02T09:08:46.109Z,14.37
2019-05-02T09:12:04.944Z,13.83
2019-05-02T09:14:57.214Z,14.03
2019-05-02T09:18:02.820Z,13.40
2019-05-02T09:21:12.485Z,13.23
2019-05-02T09:24:21.400Z,13.60
2019-05-02T09:27:23.854Z,12.57
2019-05-02T09:30:29.941Z,13.23
2019-05-02T09:33:36.722Z,13.80
2019-05-02T09:36:41.849Z,13.90
2019-05-02T09:39:46.544Z,14.10
2019-05-02T09:42:56.050Z,13.83
2019-05-02T09:45:58.137Z,14.23
2019-05-02T09:49:09.000Z,14.47
2019-05-02T09:52:08.872Z,14.20
2019-05-02T09:55:15.467Z,14.37
2019-05-02T09:58:22.819Z,13.70
2019-05-02T10:01:42.113Z,13.47
2019-05-02T10:04:46.589Z,13.63
2019-05-02T10:07:52.587Z,14.00
2019-05-02T10:10:57.166Z,13.80
2019-05-02T10:14:02.452Z,13.20
2019-05-02T10:17:07.511Z,13.50
2019-05-02T10:20:12.540Z,13.10
2019-05-02T10:23:19.547Z,12.93
2019-05-02T10:26:24.570Z,12.03
2019-05-02T10:29:29.918Z,12.03
2019-05-02T10:32:34.376Z,12.47
2019-05-02T10:35:43.371Z,12.37
2019-05-02T10:38:48.930Z,10.87
2019-05-02T10:41:57.456Z,12.07
2019-05-02T10:45:02.553Z,11.20
2019-05-02T10:48:06.384Z,11.30
2019-05-02T10:51:28.550Z,11.57
2019-05-02T10:54:37.310Z,11.43
2019-05-02T10:57:39.269Z,11.33
2019-05-02T11:00:45.482Z,10.97
2019-05-02T11:03:51.647Z,10.00
2019-05-02T11:06:56.804Z,10.73
2019-05-02T11:10:06.695Z,9.57
2019-05-02T11:13:14.013Z,8.93
2019-05-02T11:16:42.212Z,9.60
2019-05-02T11:19:52.670Z,9.27
2019-05-02T11:22:57.353Z,8.53
2019-05-02T11:26:01.782Z,9.20
2019-05-02T11:29:08.880Z,8.47
2019-05-02T11:32:13.632Z,9.03
2019-05-02T11:35:18.021Z,8.80
2019-05-02T11:38:41.408Z,8.37
2019-05-02T11:41:31.733Z,8.83
2019-05-02T11:44:36.682Z,7.80
2019-05-02T11:47:42.290Z,7.53
2019-05-02T11:50:47.149Z,8.60
2019-05-02T11:53:59.337Z,7.60
2019-05-02T11:57:03.423Z,7.83
2019-05-02T12:00:09.624Z,7.73
2019-05-02T12:03:28.033Z,7.47
2019-05-02T12:06:29.862Z,8.00
2019-05-02T12:09:34.592Z,7.70
2019-05-02T12:12:39.690Z,8.27
2019-05-02T12:15:44.995Z,8.27
2019-05-02T12:18:49.327Z,8.80
2019-05-02T12:22:16.910Z,8.33
2019-05-02T12:25:22.346Z,8.57
2019-05-02T12:28:26.749Z,8.50
2019-05-02T12:31:32.630Z,8.27
2019-05-02T12:34:37.461Z,8.00
2019-05-02T12:37:42.504Z,8.13
2019-05-02T12:40:46.949Z,8.57
2019-05-02T12:43:52.428Z,9.80
2019-05-02T12:46:56.924Z,9.33
2019-05-02T12:50:03.171Z,9.20
2019-05-02T12:53:09.081Z,9.40
2019-05-02T12:56:13.409Z,9.00
2019-05-02T12:59:17.684Z,9.10
2019-05-02T13:02:41.690Z,9.37
2019-05-02T13:05:46.107Z,9.57
2019-05-02T13:08:52.437Z,9.83
2019-05-02T13:12:04.637Z,9.27
2019-05-02T13:15:09.600Z,8.73
2019-05-02T13:18:18.737Z,8.47
2019-05-02T13:21:24.122Z,8.40
2019-05-02T13:28:01.977Z,8.43
2019-05-02T13:31:13.481Z,8.67
2019-05-02T13:34:32.971Z,8.97
2019-05-02T13:37:37.351Z,9.20
2019-05-02T13:40:46.081Z,8.10
2019-05-02T13:43:52.447Z,8.37
2019-05-02T13:46:57.019Z,8.07
2019-05-02T13:50:03.790Z,7.73
2019-05-02T13:53:07.587Z,7.93
2019-05-02T13:56:46.540Z,9.20
2019-05-02T13:59:52.569Z,9.70
2019-05-02T14:02:57.462Z,9.50
2019-05-02T14:06:02.964Z,9.10
2019-05-02T14:09:28.411Z,9.60
2019-05-02T14:12:57.822Z,8.83
2019-05-02T14:16:02.373Z,8.57
2019-05-02T14:19:12.739Z,9.30
2019-05-02T14:22:17.096Z,8.63
2019-05-02T14:25:22.410Z,8.13
2019-05-02T14:28:31.204Z,7.80
2019-05-02T14:31:33.953Z,7.87
2019-05-02T14:35:00.025Z,7.70
2019-05-02T14:38:14.793Z,8.00
2019-05-02T14:41:30.119Z,8.00
2019-05-02T14:45:01.463Z,7.63
2019-05-02T14:47:42.322Z,7.53
2019-05-02T14:50:49.650Z,6.53
2019-05-02T14:53:57.559Z,7.17
2019-05-02T14:57:08.219Z,7.17
2019-05-02T15:00:14.217Z,5.90
2019-05-02T15:03:24.528Z,6.43
2019-05-02T15:06:25.986Z,6.10
2019-05-02T15:09:32.219Z,6.80
2019-05-02T15:12:36.366Z,7.17
2019-05-02T15:15:41.585Z,7.43
2019-05-02T15:18:47.565Z,6.90
2019-05-02T15:21:55.932Z,6.23
2019-05-02T15:24:58.779Z,6.37
2019-05-02T15:28:03.164Z,6.37
2019-05-02T15:31:11.884Z,6.50
2019-05-02T15:34:22.801Z,6.27
2019-05-02T15:37:27.701Z,6.10
2019-05-02T15:43:39.283Z,5.90
2019-05-02T15:46:42.567Z,6.07
2019-05-02T15:49:46.909Z,5.67
2019-05-02T15:53:03.206Z,5.60
2019-05-02T15:56:18.615Z,5.33
2019-05-02T15:59:15.435Z,5.10
2019-05-02T16:02:22.886Z,5.37
2019-05-02T16:05:26.924Z,5.10
2019-05-02T16:08:33.029Z,5.20
2019-05-02T16:11:37.446Z,5.27
2019-05-02T16:14:42.438Z,4.73
2019-05-02T16:17:47.061Z,4.37
2019-05-02T16:21:07.028Z,4.13
2019-05-02T16:24:23.196Z,4.43
2019-05-02T16:27:46.612Z,4.63
2019-05-02T16:30:52.700Z,3.83
2019-05-02T16:33:57.522Z,4.27
2019-05-02T16:37:13.558Z,3.87
2019-05-02T16:40:23.933Z,4.07
2019-05-02T16:46:40.795Z,3.50
2019-05-02T16:49:47.952Z,3.70
2019-05-02T16:52:55.629Z,3.67
2019-05-02T16:56:05.575Z,4.00
2019-05-02T16:59:07.739Z,4.40
2019-05-02T17:02:12.312Z,4.17
2019-05-02T17:05:17.214Z,4.03
2019-05-02T17:08:49.404Z,4.10
2019-05-02T17:11:52.589Z,3.50
2019-05-02T17:15:14.775Z,3.20
2019-05-02T17:18:19.076Z,3.07
2019-05-02T17:21:26.905Z,2.80
2019-05-02T17:24:29.455Z,2.80
2019-05-02T17:27:33.799Z,2.50
2019-05-02T17:30:39.423Z,2.47
2019-05-02T17:33:46.168Z,2.40
2019-05-02T17:36:51.836Z,2.70
2019-05-02T17:39:56.328Z,2.80
2019-05-02T17:43:02.839Z,2.87
2019-05-02T17:46:12.688Z,3.07
2019-05-02T17:49:14.011Z,2.60
2019-05-02T17:52:33.326Z,2.60
2019-05-02T17:55:56.758Z,2.70
2019-05-02T17:59:02.045Z,3.10
2019-05-02T18:02:11.543Z,3.70
2019-05-02T18:05:35.583Z,3.33
2019-05-02T18:08:37.898Z,3.20
2019-05-02T18:11:42.441Z,3.00
2019-05-02T18:14:53.155Z,2.50
2019-05-02T18:17:53.037Z,2.33
2019-05-02T18:20:57.388Z,2.40
2019-05-02T18:24:04.955Z,2.30
2019-05-02T18:27:08.123Z,2.57
2019-05-02T18:30:25.018Z,2.60
2019-05-02T18:33:24.692Z,3.23
2019-05-02T18:36:31.978Z,3.13
2019-05-02T18:39:45.468Z,2.90
2019-05-02T18:42:44.015Z,2.70
2019-05-02T18:45:51.216Z,2.60
2019-05-02T18:48:55.564Z,2.60
2019-05-02T18:52:01.850Z,2.80
2019-05-02T18:55:06.629Z,3.00
2019-05-02T18:58:31.821Z,2.70
2019-05-02T19:01:39.478Z,2.60
2019-05-02T19:04:46.098Z,2.57
2019-05-02T19:07:52.746Z,3.30
2019-05-02T19:11:08.516Z,3.20
2019-05-02T19:14:02.818Z,3.47
2019-05-02T19:17:09.146Z,3.33
2019-05-02T19:21:06.840Z,3.70
2019-05-02T19:24:12.958Z,3.50
2019-05-02T19:27:29.560Z,3.60
2019-05-02T19:30:34.765Z,3.50
2019-05-02T19:33:42.658Z,3.43
2019-05-02T19:37:04.670Z,3.80
2019-05-02T19:40:31.666Z,3.60
2019-05-02T19:43:40.470Z,3.80
2019-05-02T19:46:42.215Z,3.67
2019-05-02T19:49:47.273Z,3.67
2019-05-02T19:53:01.231Z,3.90
2019-05-02T19:56:01.354Z,3.80
2019-05-02T19:59:04.884Z,4.20
2019-05-02T20:02:09.203Z,3.80
2019-05-02T20:05:16.573Z,3.73
2019-05-02T20:08:24.084Z,3.70
2019-05-02T20:11:28.042Z,3.90
2019-05-02T20:14:32.152Z,4.03
2019-05-02T20:17:36.505Z,4.30
2019-05-02T20:21:12.074Z,4.17
2019-05-02T20:24:19.394Z,4.00
2019-05-02T20:27:23.104Z,4.47
2019-05-02T20:30:27.799Z,4.40
2019-05-02T20:33:32.553Z,4.20
2019-05-02T20:36:37.086Z,4.20
2019-05-02T20:39:41.727Z,4.20
2019-05-02T20:42:46.206Z,4.50
2019-05-02T20:45:52.572Z,4.40
2019-05-02T20:48:56.584Z,4.40
2019-05-02T20:52:02.433Z,4.40
2019-05-02T20:55:07.380Z,3.93
2019-05-02T20:58:12.629Z,4.17
2019-05-02T21:01:17.118Z,3.90
2019-05-02T21:04:22.841Z,4.47
2019-05-02T21:07:37.504Z,3.70
2019-05-02T21:10:54.263Z,4.40
2019-05-02T21:13:58.700Z,3.80
2019-05-02T21:17:03.000Z,3.80
2019-05-02T21:20:27.991Z,3.93
2019-05-02T21:23:43.921Z,3.77
2019-05-02T21:26:38.292Z,4.37
2019-05-02T21:29:42.651Z,3.57
2019-05-02T21:32:47.007Z,4.37
2019-05-02T21:35:52.453Z,4.17
2019-05-02T21:38:56.772Z,4.60
2019-05-02T21:42:02.359Z,4.37
2019-05-02T21:45:06.975Z,4.07
2019-05-02T21:48:11.222Z,4.10
2019-05-02T21:51:34.524Z,4.50
2019-05-02T21:54:45.795Z,4.23
2019-05-02T21:57:52.063Z,4.80
2019-05-02T22:01:15.290Z,4.57
2019-05-02T22:04:19.660Z,4.17
2019-05-02T22:07:24.050Z,4.23
2019-05-02T22:10:28.488Z,4.37
2019-05-02T22:13:32.827Z,4.47
2019-05-02T22:16:37.237Z,4.70
2019-05-02T22:19:41.732Z,4.10
2019-05-02T22:22:46.146Z,4.70
2019-05-02T22:25:52.529Z,4.47
2019-05-02T22:28:57.236Z,4.10
2019-05-02T22:32:02.988Z,4.77
2019-05-02T22:35:26.609Z,4.83
2019-05-02T22:38:49.945Z,4.73
2019-05-02T22:41:54.273Z,4.80
2019-05-02T22:45:01.593Z,4.93
2019-05-02T22:48:14.308Z,4.87
2019-05-02T22:51:18.776Z,4.80
2019-05-02T22:54:27.725Z,4.80
2019-05-02T22:57:29.143Z,4.43
2019-05-02T23:00:33.440Z,4.90
2019-05-02T23:03:37.807Z,5.23
2019-05-02T23:06:44.171Z,5.03
2019-05-02T23:09:48.159Z,5.10
2019-05-02T23:12:52.703Z,5.93
2019-05-02T23:15:57.024Z,5.47
2019-05-02T23:19:02.765Z,5.30
2019-05-02T23:22:07.230Z,5.67
2019-05-02T23:25:42.136Z,5.70
2019-05-02T23:28:51.713Z,5.10
2019-05-02T23:31:56.340Z,5.77
2019-05-02T23:35:01.949Z,5.40
2019-05-02T23:38:06.418Z,6.53
2019-05-02T23:41:12.560Z,7.23
2019-05-02T23:44:17.026Z,6.77
2019-05-02T23:47:22.431Z,7.40
2019-05-02T23:50:26.941Z,7.30
2019-05-02T23:53:31.649Z,8.30
2019-05-02T23:56:36.054Z,7.20
2019-05-02T23:59:42.432Z,7.40
